createdAt,value
2018-08-24T00:00:15.642Z,94.40
2018-08-24T00:02:43.452Z,94.40
2018-08-24T00:05:11.156Z,94.30
2018-08-24T00:07:38.726Z,94.50
2018-08-24T00:10:06.329Z,94.70
2018-08-24T00:12:34.219Z,95.10
2018-08-24T00:15:01.869Z,95.00
2018-08-24T00:17:30.143Z,94.80
2018-08-24T00:19:58.021Z,94.80
2018-08-24T00:22:25.695Z,94.80
2018-08-24T00:24:53.504Z,94.60
2018-08-24T00:27:21.089Z,94.40
2018-08-24T00:29:48.972Z,94.60
2018-08-24T00:32:16.592Z,94.60
2018-08-24T00:34:44.284Z,94.70
2018-08-24T00:37:11.808Z,95.10
2018-08-24T00:39:42.292Z,95.20
2018-08-24T00:42:10.912Z,95.20
2018-08-24T00:44:38.939Z,95.60
2018-08-24T00:47:06.551Z,95.60
2018-08-24T00:49:34.242Z,95.60
2018-08-24T00:52:01.878Z,95.50
2018-08-24T00:54:29.743Z,95.30
2018-08-24T00:56:57.345Z,95.40
2018-08-24T00:59:25.088Z,95.40
2018-08-24T01:01:52.634Z,95.30
2018-08-24T01:04:25.909Z,95.30
2018-08-24T01:06:53.448Z,95.30
2018-08-24T01:09:21.239Z,95.20
2018-08-24T01:11:54.560Z,95.10
2018-08-24T01:14:22.672Z,95.00
2018-08-24T01:16:55.868Z,94.90
2018-08-24T01:19:23.464Z,94.80
2018-08-24T01:21:51.040Z,94.80
2018-08-24T01:24:18.636Z,94.70
2018-08-24T01:26:51.858Z,94.50
2018-08-24T01:29:19.855Z,94.50
2018-08-24T01:31:47.523Z,95.00
2018-08-24T01:34:15.022Z,95.00
2018-08-24T01:36:42.792Z,95.20
2018-08-24T01:39:10.326Z,95.50
2018-08-24T01:41:37.893Z,95.60
2018-08-24T01:44:05.643Z,95.70
2018-08-24T01:46:33.215Z,95.70
2018-08-24T01:49:00.956Z,95.60
2018-08-24T01:51:28.531Z,95.40
2018-08-24T01:53:56.080Z,95.00
2018-08-24T01:56:23.896Z,94.60
2018-08-24T01:58:51.539Z,94.50
2018-08-24T02:01:19.199Z,94.30
2018-08-24T02:03:46.826Z,94.30
2018-08-24T02:06:14.434Z,94.30
2018-08-24T02:08:41.963Z,94.30
2018-08-24T02:11:15.340Z,94.20
2018-08-24T02:13:48.687Z,94.30
2018-08-24T02:16:16.615Z,94.50
2018-08-24T02:18:49.984Z,94.70
2018-08-24T02:21:23.327Z,94.80
2018-08-24T02:23:51.012Z,94.80
2018-08-24T02:26:19.021Z,94.60
2018-08-24T02:28:46.566Z,94.90
2018-08-24T02:31:14.502Z,95.00
2018-08-24T02:33:42.308Z,95.10
2018-08-24T02:36:10.638Z,95.40
2018-08-24T02:38:39.214Z,95.50
2018-08-24T02:41:07.095Z,95.50
2018-08-24T02:43:34.683Z,95.60
2018-08-24T02:46:02.528Z,95.40
2018-08-24T02:48:30.175Z,95.50
2018-08-24T02:50:57.943Z,95.50
2018-08-24T02:53:25.948Z,95.50
2018-08-24T02:55:53.604Z,95.40
2018-08-24T02:58:21.172Z,95.20
2018-08-24T03:00:49.095Z,95.30
2018-08-24T03:03:16.780Z,95.30
2018-08-24T03:05:44.545Z,95.40
2018-08-24T03:08:12.116Z,95.40
2018-08-24T03:10:39.743Z,95.40
2018-08-24T03:13:07.355Z,95.40
2018-08-24T03:15:34.917Z,95.40
2018-08-24T03:18:02.595Z,95.20
2018-08-24T03:20:30.163Z,95.10
2018-08-24T03:22:57.716Z,95.10
2018-08-24T03:25:25.280Z,95.40
2018-08-24T03:27:52.858Z,95.60
2018-08-24T03:30:20.596Z,95.80
2018-08-24T03:32:48.192Z,95.80
2018-08-24T03:35:15.919Z,95.90
2018-08-24T03:37:43.456Z,95.80
2018-08-24T03:40:10.955Z,95.70
2018-08-24T03:42:38.627Z,95.60
2018-08-24T03:45:06.342Z,95.50
2018-08-24T03:47:34.270Z,95.60
2018-08-24T03:50:01.867Z,95.60
2018-08-24T03:52:29.701Z,95.70
2018-08-24T03:54:57.350Z,95.80
2018-08-24T03:57:25.032Z,95.80
2018-08-24T03:59:52.776Z,95.60
2018-08-24T04:02:20.407Z,95.60
2018-08-24T04:04:47.948Z,95.50
2018-08-24T04:07:15.436Z,95.40
2018-08-24T04:09:43.032Z,94.90
2018-08-24T04:12:10.706Z,94.90
2018-08-24T04:14:38.314Z,94.80
2018-08-24T04:17:11.576Z,94.80
2018-08-24T04:19:39.136Z,94.70
2018-08-24T04:22:06.728Z,94.40
2018-08-24T04:24:34.450Z,94.30
2018-08-24T04:27:02.048Z,94.30
2018-08-24T04:29:29.739Z,94.30
2018-08-24T04:31:57.228Z,94.40
2018-08-24T04:34:24.819Z,94.50
2018-08-24T04:36:52.436Z,94.60
2018-08-24T04:39:19.940Z,94.70
2018-08-24T04:41:47.801Z,94.80
2018-08-24T04:44:15.377Z,95.00
2018-08-24T04:46:42.928Z,95.10
2018-08-24T04:49:10.455Z,94.80
2018-08-24T04:51:38.113Z,94.60
2018-08-24T04:54:05.855Z,94.50
2018-08-24T04:56:33.646Z,94.50
2018-08-24T04:59:01.710Z,94.40
2018-08-24T05:01:29.264Z,94.30
2018-08-24T05:03:57.958Z,94.20
2018-08-24T05:06:25.467Z,94.20
2018-08-24T05:08:53.104Z,94.30
2018-08-24T05:11:20.752Z,94.30
2018-08-24T05:13:48.387Z,94.10
2018-08-24T05:16:15.972Z,94.20
2018-08-24T05:18:43.549Z,94.20
2018-08-24T05:21:11.118Z,94.20
2018-08-24T05:23:38.664Z,94.10
2018-08-24T05:26:06.205Z,94.20
2018-08-24T05:28:33.979Z,94.10
2018-08-24T05:31:01.610Z,94.00
2018-08-24T05:33:29.227Z,93.60
2018-08-24T05:35:56.884Z,93.60
2018-08-24T05:38:24.415Z,93.50
2018-08-24T05:40:52.164Z,93.30
2018-08-24T05:43:20.317Z,92.80
2018-08-24T05:45:47.993Z,92.60
2018-08-24T05:48:15.540Z,92.20
2018-08-24T05:50:43.362Z,92.10
2018-08-24T05:53:10.988Z,91.80
2018-08-24T05:55:39.775Z,91.60
2018-08-24T05:58:08.390Z,91.10
2018-08-24T06:00:38.924Z,90.90
2018-08-24T06:03:07.270Z,90.70
2018-08-24T06:05:34.992Z,90.30
2018-08-24T06:08:02.536Z,89.60
2018-08-24T06:10:30.276Z,87.50
2018-08-24T06:12:59.067Z,86.20
2018-08-24T06:15:26.899Z,84.70
2018-08-24T06:17:55.812Z,83.60
2018-08-24T06:20:23.669Z,82.80
2018-08-24T06:22:51.650Z,82.70
2018-08-24T06:25:19.308Z,82.70
2018-08-24T06:27:46.947Z,81.40
2018-08-24T06:30:14.465Z,82.10
2018-08-24T06:32:42.500Z,81.90
2018-08-24T06:35:11.514Z,81.50
2018-08-24T06:37:39.150Z,81.50
2018-08-24T06:40:07.098Z,82.10
2018-08-24T06:42:34.776Z,81.70
2018-08-24T06:45:02.540Z,81.40
2018-08-24T06:47:30.178Z,81.70
2018-08-24T06:49:57.962Z,82.10
2018-08-24T06:52:26.148Z,82.10
2018-08-24T06:54:54.024Z,83.20
2018-08-24T06:57:21.602Z,83.20
2018-08-24T06:59:49.550Z,81.70
2018-08-24T07:02:17.178Z,81.50
2018-08-24T07:04:44.856Z,82.70
2018-08-24T07:07:12.390Z,81.00
2018-08-24T07:09:39.936Z,79.90
2018-08-24T07:12:10.221Z,75.00
2018-08-24T07:14:38.093Z,75.60
2018-08-24T07:17:05.675Z,75.40
2018-08-24T07:19:33.322Z,74.30
2018-08-24T07:22:01.051Z,72.00
2018-08-24T07:24:28.718Z,71.30
2018-08-24T07:26:57.009Z,72.00
2018-08-24T07:29:24.869Z,73.30
2018-08-24T07:31:52.423Z,75.40
2018-08-24T07:34:20.056Z,75.40
2018-08-24T07:36:47.864Z,75.60
2018-08-24T07:39:15.712Z,75.60
2018-08-24T07:41:43.334Z,74.60
2018-08-24T07:44:11.561Z,75.20
2018-08-24T07:46:39.512Z,75.60
2018-08-24T07:49:08.123Z,75.00
2018-08-24T07:51:36.579Z,76.70
2018-08-24T07:54:04.190Z,76.70
2018-08-24T07:56:31.804Z,76.70
2018-08-24T07:59:00.712Z,72.60
2018-08-24T08:01:28.912Z,72.80
2018-08-24T08:03:57.480Z,73.70
2018-08-24T08:06:25.096Z,70.00
2018-08-24T08:08:52.748Z,70.40
2018-08-24T08:11:20.303Z,68.70
2018-08-24T08:13:47.984Z,67.40
2018-08-24T08:16:15.746Z,63.30
2018-08-24T08:18:43.555Z,61.60
2018-08-24T08:21:11.421Z,59.30
2018-08-24T08:23:38.948Z,57.40
2018-08-24T08:26:06.837Z,58.00
2018-08-24T08:28:34.483Z,56.70
2018-08-24T08:31:02.043Z,57.50
2018-08-24T08:33:29.727Z,56.10
2018-08-24T08:35:57.260Z,55.70
2018-08-24T08:38:24.979Z,54.90
2018-08-24T08:40:52.578Z,53.70
2018-08-24T08:43:20.392Z,49.60
2018-08-24T08:45:48.016Z,47.30
2018-08-24T08:48:15.634Z,42.70
2018-08-24T08:50:43.397Z,38.30
2018-08-24T08:53:11.036Z,36.20
2018-08-24T08:55:38.678Z,33.30
2018-08-24T08:58:06.679Z,31.60
2018-08-24T09:00:34.711Z,31.00
2018-08-24T09:03:02.269Z,31.60
2018-08-24T09:05:29.837Z,32.40
2018-08-24T09:07:57.696Z,33.40
2018-08-24T09:10:25.360Z,35.40
2018-08-24T09:12:52.998Z,36.60
2018-08-24T09:15:20.847Z,39.20
2018-08-24T09:17:54.140Z,39.80
2018-08-24T09:20:27.418Z,42.10
2018-08-24T09:23:00.711Z,43.50
2018-08-24T09:25:34.025Z,44.90
2018-08-24T09:28:07.281Z,45.00
2018-08-24T09:30:39.098Z,46.70
2018-08-24T09:33:07.001Z,47.20
2018-08-24T09:35:34.867Z,47.20
2018-08-24T09:38:02.460Z,46.80
2018-08-24T09:40:35.753Z,43.60
2018-08-24T09:43:09.202Z,39.20
2018-08-24T09:45:36.782Z,32.40
2018-08-24T09:48:10.277Z,27.30
2018-08-24T09:50:43.416Z,24.70
2018-08-24T09:54:18.613Z,23.00
2018-08-24T09:56:46.294Z,22.60
2018-08-24T09:59:13.956Z,23.80
2018-08-24T10:01:47.172Z,24.90
2018-08-24T10:07:57.597Z,27.90
2018-08-24T10:10:25.138Z,29.80
2018-08-24T10:12:52.844Z,29.60
2018-08-24T10:15:20.496Z,28.10
2018-08-24T10:17:48.050Z,27.50
2018-08-24T10:20:15.728Z,27.70
2018-08-24T10:22:43.296Z,28.10
2018-08-24T10:25:10.943Z,29.10
2018-08-24T10:27:38.566Z,30.10
2018-08-24T10:30:06.869Z,31.80
2018-08-24T10:32:35.262Z,35.10
2018-08-24T10:35:02.860Z,37.40
2018-08-24T10:37:30.482Z,36.60
2018-08-24T10:39:58.201Z,38.00
2018-08-24T10:42:25.766Z,38.00
2018-08-24T10:44:53.880Z,38.50
2018-08-24T10:47:21.437Z,37.40
2018-08-24T10:49:49.547Z,37.70
2018-08-24T10:52:17.220Z,38.50
2018-08-24T10:54:45.534Z,38.80
2018-08-24T10:57:13.104Z,38.20
2018-08-24T10:59:41.142Z,38.90
2018-08-24T11:02:08.749Z,38.50
2018-08-24T11:04:36.282Z,35.70
2018-08-24T11:07:04.111Z,32.40
2018-08-24T11:09:31.932Z,29.70
2018-08-24T11:11:59.625Z,30.60
2018-08-24T11:14:27.126Z,32.40
2018-08-24T11:16:54.704Z,31.50
2018-08-24T11:19:22.437Z,33.40
2018-08-24T11:21:49.984Z,35.60
2018-08-24T11:24:17.607Z,37.10
2018-08-24T11:26:45.241Z,39.70
2018-08-24T11:29:13.256Z,43.50
2018-08-24T11:31:40.881Z,46.50
2018-08-24T11:34:08.662Z,50.80
2018-08-24T11:36:36.264Z,54.30
2018-08-24T11:39:05.495Z,56.30
2018-08-24T11:41:33.039Z,59.00
2018-08-24T11:44:00.611Z,60.10
2018-08-24T11:46:28.323Z,62.30
2018-08-24T11:48:55.934Z,66.10
2018-08-24T11:51:23.535Z,65.10
2018-08-24T11:53:51.200Z,66.40
2018-08-24T11:56:18.734Z,66.60
2018-08-24T11:58:46.312Z,67.70
2018-08-24T12:01:14.080Z,69.20
2018-08-24T12:03:41.737Z,71.10
2018-08-24T12:06:09.404Z,72.80
2018-08-24T12:08:37.077Z,72.40
2018-08-24T12:11:04.677Z,73.50
2018-08-24T12:13:32.252Z,74.30
2018-08-24T12:16:00.107Z,72.60
2018-08-24T12:18:27.832Z,73.90
2018-08-24T12:20:55.456Z,73.50
2018-08-24T12:23:23.220Z,70.00
2018-08-24T12:25:50.889Z,69.60
2018-08-24T12:28:18.466Z,68.30
2018-08-24T12:30:46.089Z,67.70
2018-08-24T12:33:13.689Z,67.40
2018-08-24T12:35:41.247Z,63.70
2018-08-24T12:38:08.852Z,55.50
2018-08-24T12:40:36.452Z,49.40
2018-08-24T12:43:04.707Z,47.90
2018-08-24T12:45:32.367Z,48.70
2018-08-24T12:47:59.921Z,50.30
2018-08-24T12:50:27.548Z,52.80
2018-08-24T12:52:55.297Z,54.80
2018-08-24T12:55:22.873Z,56.60
2018-08-24T12:57:50.504Z,57.40
2018-08-24T13:00:18.168Z,57.70
2018-08-24T13:02:45.746Z,57.40
2018-08-24T13:05:13.969Z,58.30
2018-08-24T13:07:41.640Z,58.70
2018-08-24T13:10:10.151Z,59.50
2018-08-24T13:12:38.117Z,61.00
2018-08-24T13:15:06.173Z,62.70
2018-08-24T13:17:33.690Z,63.80
2018-08-24T13:20:01.318Z,64.40
2018-08-24T13:22:29.074Z,65.50
2018-08-24T13:24:57.084Z,66.40
2018-08-24T13:27:24.870Z,67.60
2018-08-24T13:29:52.227Z,66.30
2018-08-24T13:32:19.832Z,67.70
2018-08-24T13:34:47.481Z,66.60
2018-08-24T13:37:15.166Z,66.80
2018-08-24T13:39:42.783Z,66.60
2018-08-24T13:42:17.149Z,67.20
2018-08-24T13:44:44.750Z,67.40
2018-08-24T13:47:12.366Z,67.90
2018-08-24T13:49:39.968Z,67.70
2018-08-24T13:52:07.570Z,67.40
2018-08-24T13:54:35.306Z,68.10
2018-08-24T13:57:03.017Z,68.30
2018-08-24T13:59:30.721Z,67.20
2018-08-24T14:01:58.216Z,67.90
2018-08-24T14:04:25.911Z,66.30
2018-08-24T14:06:54.362Z,67.20
2018-08-24T14:09:22.002Z,66.80
2018-08-24T14:11:49.657Z,65.30
2018-08-24T14:14:17.188Z,64.60
2018-08-24T14:16:44.738Z,62.90
2018-08-24T14:19:12.459Z,59.20
2018-08-24T14:21:40.140Z,57.00
2018-08-24T14:24:07.815Z,58.00
2018-08-24T14:26:36.057Z,55.40
2018-08-24T14:29:04.177Z,52.00
2018-08-24T14:31:31.955Z,48.70
2018-08-24T14:33:59.519Z,45.90
2018-08-24T14:36:27.120Z,46.20
2018-08-24T14:38:55.030Z,44.00
2018-08-24T14:41:22.853Z,42.10
2018-08-24T14:43:50.662Z,40.50
2018-08-24T14:46:18.243Z,39.10
2018-08-24T14:48:45.797Z,38.90
2018-08-24T14:51:13.407Z,37.30
2018-08-24T14:53:40.938Z,36.30
2018-08-24T14:56:08.748Z,38.50
2018-08-24T14:58:36.437Z,38.50
2018-08-24T15:01:04.057Z,40.10
2018-08-24T15:03:31.685Z,43.20
2018-08-24T15:05:59.344Z,44.60
2018-08-24T15:08:26.901Z,44.70
2018-08-24T15:10:54.605Z,45.00
2018-08-24T15:13:22.128Z,46.40
2018-08-24T15:15:49.794Z,47.50
2018-08-24T15:18:17.380Z,47.60
2018-08-24T15:20:45.055Z,48.10
2018-08-24T15:23:12.597Z,47.20
2018-08-24T15:25:40.223Z,48.70
2018-08-24T15:28:08.024Z,49.70
2018-08-24T15:30:35.805Z,50.50
2018-08-24T15:33:03.488Z,51.10
2018-08-24T15:35:31.130Z,51.00
2018-08-24T15:37:58.667Z,51.70
2018-08-24T15:40:26.227Z,52.30
2018-08-24T15:42:53.906Z,52.60
2018-08-24T15:45:21.470Z,52.90
2018-08-24T15:47:49.111Z,52.60
2018-08-24T15:50:16.675Z,52.20
2018-08-24T15:52:44.483Z,51.60
2018-08-24T15:55:12.107Z,51.90
2018-08-24T15:57:39.761Z,51.40
2018-08-24T16:00:07.708Z,52.60
2018-08-24T16:02:35.605Z,52.30
2018-08-24T16:05:03.327Z,53.10
2018-08-24T16:07:34.485Z,52.90
2018-08-24T16:10:02.293Z,53.90
2018-08-24T16:12:29.952Z,54.30
2018-08-24T16:14:57.586Z,54.80
2018-08-24T16:17:25.276Z,55.10
2018-08-24T16:19:52.778Z,55.10
2018-08-24T16:22:20.472Z,55.80
2018-08-24T16:24:48.111Z,55.40
2018-08-24T16:27:21.808Z,56.10
2018-08-24T16:29:50.024Z,56.90
2018-08-24T16:32:17.797Z,57.00
2018-08-24T16:34:45.379Z,56.70
2018-08-24T16:37:13.056Z,57.50
2018-08-24T16:39:40.684Z,59.30
2018-08-24T16:42:08.232Z,59.20
2018-08-24T16:44:35.814Z,60.10
2018-08-24T16:47:03.351Z,59.90
2018-08-24T16:49:31.036Z,59.90
2018-08-24T16:51:58.894Z,59.80
2018-08-24T16:54:26.769Z,60.30
2018-08-24T16:56:54.624Z,60.50
2018-08-24T16:59:22.193Z,61.40
2018-08-24T17:01:49.760Z,61.40
2018-08-24T17:04:17.446Z,61.60
2018-08-24T17:06:45.044Z,61.60
2018-08-24T17:09:12.949Z,61.40
2018-08-24T17:11:40.771Z,61.80
2018-08-24T17:14:08.443Z,62.20
2018-08-24T17:16:36.346Z,62.50
2018-08-24T17:19:04.205Z,62.30
2018-08-24T17:21:32.216Z,62.20
2018-08-24T17:23:59.729Z,62.70
2018-08-24T17:26:27.463Z,62.70
2018-08-24T17:28:55.097Z,63.50
2018-08-24T17:31:22.993Z,63.80
2018-08-24T17:33:50.672Z,64.00
2018-08-24T17:36:18.240Z,65.00
2018-08-24T17:38:46.018Z,66.10
2018-08-24T17:41:14.193Z,66.80
2018-08-24T17:43:41.947Z,67.60
2018-08-24T17:46:09.699Z,67.40
2018-08-24T17:48:37.239Z,67.60
2018-08-24T17:51:04.924Z,67.40
2018-08-24T17:53:32.439Z,67.90
2018-08-24T17:56:00.060Z,67.70
2018-08-24T17:58:27.664Z,68.10
2018-08-24T18:00:55.381Z,68.30
2018-08-24T18:03:23.055Z,68.90
2018-08-24T18:05:50.639Z,69.20
2018-08-24T18:08:18.580Z,69.80
2018-08-24T18:10:46.448Z,69.60
2018-08-24T18:13:14.100Z,69.80
2018-08-24T18:15:41.863Z,69.80
2018-08-24T18:18:09.414Z,70.50
2018-08-24T18:20:36.956Z,70.50
2018-08-24T18:23:04.737Z,70.50
2018-08-24T18:25:32.253Z,70.90
2018-08-24T18:28:00.240Z,70.90
2018-08-24T18:30:28.042Z,71.50
2018-08-24T18:32:55.604Z,71.70
2018-08-24T18:35:23.378Z,71.80
2018-08-24T18:37:51.148Z,71.80
2018-08-24T18:40:18.926Z,72.20
2018-08-24T18:42:46.615Z,71.70
2018-08-24T18:45:14.203Z,71.10
2018-08-24T18:47:42.022Z,71.10
2018-08-24T18:50:09.736Z,71.10
2018-08-24T18:52:37.620Z,71.30
2018-08-24T18:55:06.022Z,71.30
2018-08-24T18:57:33.889Z,71.50
2018-08-24T19:00:01.534Z,71.50
2018-08-24T19:02:29.209Z,71.30
2018-08-24T19:04:56.993Z,71.30
2018-08-24T19:07:24.569Z,71.70
2018-08-24T19:09:52.323Z,72.00
2018-08-24T19:12:25.068Z,72.20
2018-08-24T19:14:53.340Z,72.20
2018-08-24T19:17:26.727Z,72.00
2018-08-24T19:20:00.082Z,71.80
2018-08-24T19:22:27.709Z,72.00
2018-08-24T19:24:55.246Z,72.20
2018-08-24T19:27:27.434Z,72.00
2018-08-24T19:30:00.756Z,72.20
2018-08-24T19:32:28.394Z,72.20
2018-08-24T19:34:56.160Z,72.40
2018-08-24T19:37:23.799Z,72.60
2018-08-24T19:39:57.663Z,72.60
2018-08-24T19:42:25.961Z,72.80
2018-08-24T19:44:54.359Z,72.80
2018-08-24T19:47:27.623Z,72.80
2018-08-24T19:49:55.397Z,72.80
2018-08-24T19:52:23.063Z,72.80
2018-08-24T19:54:50.747Z,72.60
2018-08-24T19:57:24.112Z,72.40
2018-08-24T19:59:51.739Z,72.00
2018-08-24T20:02:19.679Z,72.00
2018-08-24T20:04:47.341Z,72.00
2018-08-24T20:07:20.653Z,72.20
2018-08-24T20:09:53.944Z,72.20
2018-08-24T20:12:21.593Z,72.60
2018-08-24T20:14:54.877Z,72.40
2018-08-24T20:17:28.430Z,72.20
2018-08-24T20:19:57.101Z,72.60
2018-08-24T20:22:24.891Z,72.40
2018-08-24T20:24:52.791Z,72.80
2018-08-24T20:27:20.446Z,72.60
2018-08-24T20:29:48.133Z,72.60
2018-08-24T20:32:15.795Z,72.60
2018-08-24T20:34:43.363Z,72.00
2018-08-24T20:37:11.297Z,72.00
2018-08-24T20:39:38.963Z,71.80
2018-08-24T20:42:06.646Z,72.00
2018-08-24T20:44:34.314Z,72.00
2018-08-24T20:47:02.090Z,71.30
2018-08-24T20:49:29.876Z,71.70
2018-08-24T20:51:57.446Z,72.00
2018-08-24T20:54:25.059Z,72.40
2018-08-24T20:56:52.713Z,72.80
2018-08-24T20:59:20.328Z,73.00
2018-08-24T21:01:48.049Z,72.80
2018-08-24T21:04:15.635Z,72.80
2018-08-24T21:06:43.248Z,73.20
2018-08-24T21:09:11.764Z,73.20
2018-08-24T21:11:40.016Z,72.80
2018-08-24T21:14:07.743Z,73.00
2018-08-24T21:16:35.371Z,72.80
2018-08-24T21:19:03.424Z,72.20
2018-08-24T21:21:31.094Z,72.00
2018-08-24T21:23:58.752Z,72.00
2018-08-24T21:26:26.380Z,72.00
2018-08-24T21:28:53.980Z,72.40
2018-08-24T21:31:21.617Z,72.20
2018-08-24T21:33:49.363Z,71.50
2018-08-24T21:36:17.055Z,72.40
2018-08-24T21:38:44.723Z,72.40
2018-08-24T21:41:12.573Z,71.30
2018-08-24T21:43:40.256Z,72.00
2018-08-24T21:46:08.057Z,71.70
2018-08-24T21:48:35.677Z,71.70
2018-08-24T21:51:03.314Z,71.80
2018-08-24T21:53:30.984Z,71.50
2018-08-24T21:55:58.718Z,70.90
2018-08-24T21:58:26.534Z,71.30
2018-08-24T22:00:54.163Z,71.30
2018-08-24T22:03:21.731Z,70.70
2018-08-24T22:05:49.298Z,70.70
2018-08-24T22:08:17.258Z,70.90
2018-08-24T22:10:45.110Z,70.90
2018-08-24T22:13:12.800Z,70.50
2018-08-24T22:15:40.437Z,70.40
2018-08-24T22:18:08.103Z,69.60
2018-08-24T22:20:35.910Z,69.20
2018-08-24T22:23:03.660Z,69.10
2018-08-24T22:25:31.422Z,68.30
2018-08-24T22:27:59.279Z,66.80
2018-08-24T22:30:27.553Z,66.60
2018-08-24T22:32:55.116Z,65.90
2018-08-24T22:35:22.656Z,66.10
2018-08-24T22:37:50.317Z,65.90
2018-08-24T22:40:18.108Z,66.10
2018-08-24T22:42:45.905Z,66.40
2018-08-24T22:45:14.025Z,67.20
2018-08-24T22:47:41.738Z,67.60
2018-08-24T22:50:09.708Z,68.30
2018-08-24T22:52:37.852Z,68.70
2018-08-24T22:55:06.552Z,69.20
2018-08-24T22:57:34.088Z,69.40
2018-08-24T23:00:01.661Z,69.80
2018-08-24T23:02:29.397Z,70.00
2018-08-24T23:04:56.943Z,70.00
2018-08-24T23:07:24.680Z,70.20
2018-08-24T23:09:52.382Z,69.60
2018-08-24T23:12:19.961Z,69.60
2018-08-24T23:14:47.599Z,69.20
2018-08-24T23:17:15.637Z,69.60
2018-08-24T23:19:43.368Z,69.20
2018-08-24T23:22:10.896Z,68.70
2018-08-24T23:24:38.449Z,68.10
2018-08-24T23:27:06.463Z,67.60
2018-08-24T23:29:34.063Z,66.10
2018-08-24T23:32:01.885Z,65.90
2018-08-24T23:34:29.565Z,65.90
2018-08-24T23:36:57.094Z,65.50
2018-08-24T23:39:24.703Z,65.30
2018-08-24T23:41:52.318Z,65.70
2018-08-24T23:44:20.021Z,65.70
2018-08-24T23:46:47.619Z,66.30
2018-08-24T23:49:15.172Z,66.40
2018-08-24T23:51:42.753Z,67.40
2018-08-24T23:54:10.327Z,67.40
2018-08-24T23:56:37.992Z,67.40
2018-08-24T23:59:05.647Z,67.60
